sensor_id;sensor_type;location;lat;lon;timestamp;P1;durP1;ratioP1;P2;durP2;ratioP2
20067;SDS011;10194;50.824;7.134;2022-11-15T00:00:47;260.97;;;232.33;;
20067;SDS011;10194;50.824;7.134;2022-11-15T00:03:17;253.60;;;219.20;;
20067;SDS011;10194;50.824;7.134;2022-11-15T00:05:49;259.60;;;221.93;;
20067;SDS011;10194;50.824;7.134;2022-11-15T00:08:15;257.33;;;215.53;;
20067;SDS011;10194;50.824;7.134;2022-11-15T00:10:41;250.17;;;204.83;;
20067;SDS011;10194;50.824;7.134;2022-11-15T00:13:11;252.90;;;200.07;;
20067;SDS011;10194;50.824;7.134;2022-11-15T00:15:38;249.70;;;197.50;;
20067;SDS011;10194;50.824;7.134;2022-11-15T00:18:06;250.87;;;191.63;;
20067;SDS011;10194;50.824;7.134;2022-11-15T00:20:38;248.53;;;185.77;;
20067;SDS011;10194;50.824;7.134;2022-11-15T00:23:04;247.57;;;184.83;;
20067;SDS011;10194;50.824;7.134;2022-11-15T00:25:30;251.47;;;183.77;;
20067;SDS011;10194;50.824;7.134;2022-11-15T00:27:57;245.87;;;182.80;;
20067;SDS011;10194;50.824;7.134;2022-11-15T00:30:24;244.10;;;187.63;;
20067;SDS011;10194;50.824;7.134;2022-11-15T00:32:50;254.07;;;187.10;;
20067;SDS011;10194;50.824;7.134;2022-11-15T00:35:16;248.73;;;185.07;;
20067;SDS011;10194;50.824;7.134;2022-11-15T00:37:43;247.27;;;184.47;;
20067;SDS011;10194;50.824;7.134;2022-11-15T00:40:09;249.73;;;187.43;;
20067;SDS011;10194;50.824;7.134;2022-11-15T00:42:37;251.87;;;189.60;;
20067;SDS011;10194;50.824;7.134;2022-11-15T00:45:03;247.93;;;186.43;;
20067;SDS011;10194;50.824;7.134;2022-11-15T00:47:30;249.13;;;193.63;;
20067;SDS011;10194;50.824;7.134;2022-11-15T00:49:55;254.80;;;204.23;;
20067;SDS011;10194;50.824;7.134;2022-11-15T00:52:21;255.10;;;195.70;;
20067;SDS011;10194;50.824;7.134;2022-11-15T00:54:47;248.33;;;190.30;;
20067;SDS011;10194;50.824;7.134;2022-11-15T00:57:13;249.27;;;188.00;;
20067;SDS011;10194;50.824;7.134;2022-11-15T00:59:39;250.40;;;195.17;;
20067;SDS011;10194;50.824;7.134;2022-11-15T01:02:05;254.97;;;195.33;;
20067;SDS011;10194;50.824;7.134;2022-11-15T01:04:30;251.23;;;194.07;;
20067;SDS011;10194;50.824;7.134;2022-11-15T01:06:56;252.03;;;200.47;;
20067;SDS011;10194;50.824;7.134;2022-11-15T01:09:22;249.87;;;200.07;;
20067;SDS011;10194;50.824;7.134;2022-11-15T01:11:48;248.30;;;194.30;;
20067;SDS011;10194;50.824;7.134;2022-11-15T01:14:13;251.70;;;201.47;;
20067;SDS011;10194;50.824;7.134;2022-11-15T01:16:39;247.63;;;195.67;;
20067;SDS011;10194;50.824;7.134;2022-11-15T01:19:05;250.00;;;204.83;;
20067;SDS011;10194;50.824;7.134;2022-11-15T01:21:31;247.63;;;199.27;;
20067;SDS011;10194;50.824;7.134;2022-11-15T01:23:56;251.63;;;201.37;;
20067;SDS011;10194;50.824;7.134;2022-11-15T01:26:23;252.17;;;195.27;;
20067;SDS011;10194;50.824;7.134;2022-11-15T01:28:49;253.17;;;202.73;;
20067;SDS011;10194;50.824;7.134;2022-11-15T01:31:16;251.53;;;209.33;;
20067;SDS011;10194;50.824;7.134;2022-11-15T01:33:44;257.03;;;212.37;;
20067;SDS011;10194;50.824;7.134;2022-11-15T01:36:12;264.80;;;230.03;;
20067;SDS011;10194;50.824;7.134;2022-11-15T01:38:41;262.17;;;225.83;;
20067;SDS011;10194;50.824;7.134;2022-11-15T01:41:18;260.57;;;231.37;;
20067;SDS011;10194;50.824;7.134;2022-11-15T01:43:54;258.80;;;229.80;;
20067;SDS011;10194;50.824;7.134;2022-11-15T01:46:41;253.97;;;223.97;;
20067;SDS011;10194;50.824;7.134;2022-11-15T01:49:13;265.17;;;236.33;;
20067;SDS011;10194;50.824;7.134;2022-11-15T01:51:42;254.43;;;224.97;;
20067;SDS011;10194;50.824;7.134;2022-11-15T01:54:08;266.20;;;237.37;;
20067;SDS011;10194;50.824;7.134;2022-11-15T01:56:43;261.00;;;232.50;;
20067;SDS011;10194;50.824;7.134;2022-11-15T01:59:17;259.13;;;230.30;;
20067;SDS011;10194;50.824;7.134;2022-11-15T02:01:44;257.53;;;227.33;;
20067;SDS011;10194;50.824;7.134;2022-11-15T02:06:44;251.10;;;219.97;;
20067;SDS011;10194;50.824;7.134;2022-11-15T02:09:12;260.97;;;225.47;;
20067;SDS011;10194;50.824;7.134;2022-11-15T02:11:38;256.23;;;227.20;;
20067;SDS011;10194;50.824;7.134;2022-11-15T02:14:04;262.03;;;233.67;;
20067;SDS011;10194;50.824;7.134;2022-11-15T02:31:26;254.03;;;223.60;;
20067;SDS011;10194;50.824;7.134;2022-11-15T02:39:55;252.67;;;210.57;;
20067;SDS011;10194;50.824;7.134;2022-11-15T02:42:25;250.83;;;197.80;;
20067;SDS011;10194;50.824;7.134;2022-11-15T02:45:17;248.07;;;200.07;;
20067;SDS011;10194;50.824;7.134;2022-11-15T02:47:48;248.40;;;202.73;;
20067;SDS011;10194;50.824;7.134;2022-11-15T02:50:18;251.47;;;212.87;;
20067;SDS011;10194;50.824;7.134;2022-11-15T02:52:50;260.93;;;221.80;;
20067;SDS011;10194;50.824;7.134;2022-11-15T02:55:31;256.07;;;224.63;;
20067;SDS011;10194;50.824;7.134;2022-11-15T02:58:48;254.60;;;216.83;;
20067;SDS011;10194;50.824;7.134;2022-11-15T03:01:47;251.97;;;212.93;;
20067;SDS011;10194;50.824;7.134;2022-11-15T03:10:18;253.17;;;220.33;;
20067;SDS011;10194;50.824;7.134;2022-11-15T03:12:55;266.10;;;231.13;;
20067;SDS011;10194;50.824;7.134;2022-11-15T03:15:28;258.90;;;230.20;;
20067;SDS011;10194;50.824;7.134;2022-11-15T03:18:21;256.70;;;228.53;;
20067;SDS011;10194;50.824;7.134;2022-11-15T03:21:04;265.10;;;236.40;;
20067;SDS011;10194;50.824;7.134;2022-11-15T03:23:33;276.43;;;247.63;;
20067;SDS011;10194;50.824;7.134;2022-11-15T03:26:01;283.83;;;254.60;;
20067;SDS011;10194;50.824;7.134;2022-11-15T03:28:38;290.70;;;261.53;;
20067;SDS011;10194;50.824;7.134;2022-11-15T03:31:15;291.60;;;262.40;;
20067;SDS011;10194;50.824;7.134;2022-11-15T03:34:02;290.33;;;261.20;;
20067;SDS011;10194;50.824;7.134;2022-11-15T03:36:32;303.80;;;273.77;;
20067;SDS011;10194;50.824;7.134;2022-11-15T03:39:00;302.83;;;273.40;;
20067;SDS011;10194;50.824;7.134;2022-11-15T03:41:44;298.83;;;269.23;;
20067;SDS011;10194;50.824;7.134;2022-11-15T03:44:18;301.03;;;271.73;;
20067;SDS011;10194;50.824;7.134;2022-11-15T03:47:07;297.73;;;268.33;;
20067;SDS011;10194;50.824;7.134;2022-11-15T03:49:40;299.17;;;270.10;;
20067;SDS011;10194;50.824;7.134;2022-11-15T03:52:11;299.97;;;270.67;;
20067;SDS011;10194;50.824;7.134;2022-11-15T03:54:47;302.10;;;272.63;;
20067;SDS011;10194;50.824;7.134;2022-11-15T03:57:19;302.50;;;272.80;;
20067;SDS011;10194;50.824;7.134;2022-11-15T03:59:45;302.63;;;273.00;;
20067;SDS011;10194;50.824;7.134;2022-11-15T04:02:13;305.60;;;275.83;;
20067;SDS011;10194;50.824;7.134;2022-11-15T04:04:39;304.10;;;274.77;;
20067;SDS011;10194;50.824;7.134;2022-11-15T04:07:05;303.60;;;273.90;;
20067;SDS011;10194;50.824;7.134;2022-11-15T04:09:31;302.43;;;273.17;;
20067;SDS011;10194;50.824;7.134;2022-11-15T04:11:56;304.93;;;275.50;;
20067;SDS011;10194;50.824;7.134;2022-11-15T04:14:22;307.83;;;278.03;;
20067;SDS011;10194;50.824;7.134;2022-11-15T04:16:48;305.77;;;275.83;;
20067;SDS011;10194;50.824;7.134;2022-11-15T04:19:13;307.80;;;278.07;;
20067;SDS011;10194;50.824;7.134;2022-11-15T04:21:57;303.03;;;273.43;;
20067;SDS011;10194;50.824;7.134;2022-11-15T04:24:41;301.80;;;272.40;;
20067;SDS011;10194;50.824;7.134;2022-11-15T04:27:07;299.03;;;270.03;;
20067;SDS011;10194;50.824;7.134;2022-11-15T04:29:33;301.70;;;272.53;;
20067;SDS011;10194;50.824;7.134;2022-11-15T04:32:00;305.70;;;276.03;;
20067;SDS011;10194;50.824;7.134;2022-11-15T04:34:30;303.20;;;274.00;;
20067;SDS011;10194;50.824;7.134;2022-11-15T04:36:56;301.53;;;272.17;;
20067;SDS011;10194;50.824;7.134;2022-11-15T04:39:40;299.50;;;270.53;;
20067;SDS011;10194;50.824;7.134;2022-11-15T04:42:07;301.13;;;271.43;;
20067;SDS011;10194;50.824;7.134;2022-11-15T04:44:34;301.03;;;271.50;;
20067;SDS011;10194;50.824;7.134;2022-11-15T04:47:01;300.70;;;271.60;;
20067;SDS011;10194;50.824;7.134;2022-11-15T04:49:27;301.67;;;272.47;;
20067;SDS011;10194;50.824;7.134;2022-11-15T04:51:53;301.10;;;271.73;;
20067;SDS011;10194;50.824;7.134;2022-11-15T04:54:18;299.40;;;270.13;;
20067;SDS011;10194;50.824;7.134;2022-11-15T04:56:44;301.90;;;272.77;;
20067;SDS011;10194;50.824;7.134;2022-11-15T04:59:10;299.43;;;270.23;;
20067;SDS011;10194;50.824;7.134;2022-11-15T05:01:36;296.37;;;267.20;;
20067;SDS011;10194;50.824;7.134;2022-11-15T05:04:02;297.57;;;268.73;;
20067;SDS011;10194;50.824;7.134;2022-11-15T05:06:50;299.83;;;270.40;;
20067;SDS011;10194;50.824;7.134;2022-11-15T05:09:17;299.87;;;270.57;;
20067;SDS011;10194;50.824;7.134;2022-11-15T05:11:44;298.00;;;269.03;;
20067;SDS011;10194;50.824;7.134;2022-11-15T05:14:10;295.00;;;266.43;;
20067;SDS011;10194;50.824;7.134;2022-11-15T05:16:36;293.27;;;264.63;;
20067;SDS011;10194;50.824;7.134;2022-11-15T05:19:02;293.87;;;265.33;;
20067;SDS011;10194;50.824;7.134;2022-11-15T05:21:28;301.10;;;272.13;;
20067;SDS011;10194;50.824;7.134;2022-11-15T05:23:54;298.10;;;269.23;;
20067;SDS011;10194;50.824;7.134;2022-11-15T05:26:20;299.77;;;270.60;;
20067;SDS011;10194;50.824;7.134;2022-11-15T05:28:45;299.43;;;270.37;;
20067;SDS011;10194;50.824;7.134;2022-11-15T05:31:13;299.77;;;270.77;;
20067;SDS011;10194;50.824;7.134;2022-11-15T05:33:40;296.47;;;267.60;;
20067;SDS011;10194;50.824;7.134;2022-11-15T05:38:50;286.57;;;258.07;;
20067;SDS011;10194;50.824;7.134;2022-11-15T05:41:20;291.50;;;262.13;;
20067;SDS011;10194;50.824;7.134;2022-11-15T05:43:52;282.23;;;253.97;;
20067;SDS011;10194;50.824;7.134;2022-11-15T05:46:18;292.20;;;263.80;;
20067;SDS011;10194;50.824;7.134;2022-11-15T05:48:45;283.63;;;255.43;;
20067;SDS011;10194;50.824;7.134;2022-11-15T05:51:14;275.53;;;247.47;;
20067;SDS011;10194;50.824;7.134;2022-11-15T05:53:42;274.63;;;247.17;;
20067;SDS011;10194;50.824;7.134;2022-11-15T05:56:09;274.20;;;246.27;;
20067;SDS011;10194;50.824;7.134;2022-11-15T05:58:36;278.23;;;250.53;;
20067;SDS011;10194;50.824;7.134;2022-11-15T06:01:02;283.67;;;255.80;;
20067;SDS011;10194;50.824;7.134;2022-11-15T06:03:28;282.77;;;254.63;;
20067;SDS011;10194;50.824;7.134;2022-11-15T06:05:54;281.30;;;253.40;;
20067;SDS011;10194;50.824;7.134;2022-11-15T06:08:21;277.77;;;249.77;;
20067;SDS011;10194;50.824;7.134;2022-11-15T06:10:47;262.57;;;235.17;;
20067;SDS011;10194;50.824;7.134;2022-11-15T06:13:12;262.80;;;235.00;;
20067;SDS011;10194;50.824;7.134;2022-11-15T06:15:38;256.23;;;228.73;;
20067;SDS011;10194;50.824;7.134;2022-11-15T06:18:04;261.00;;;233.50;;
20067;SDS011;10194;50.824;7.134;2022-11-15T06:20:30;259.47;;;231.87;;
20067;SDS011;10194;50.824;7.134;2022-11-15T06:22:57;258.37;;;230.47;;
20067;SDS011;10194;50.824;7.134;2022-11-15T06:25:24;261.43;;;233.97;;
20067;SDS011;10194;50.824;7.134;2022-11-15T06:27:52;266.00;;;238.47;;
20067;SDS011;10194;50.824;7.134;2022-11-15T06:30:19;270.70;;;242.57;;
20067;SDS011;10194;50.824;7.134;2022-11-15T06:32:45;268.67;;;240.97;;
20067;SDS011;10194;50.824;7.134;2022-11-15T06:35:11;270.90;;;242.90;;
20067;SDS011;10194;50.824;7.134;2022-11-15T06:37:37;269.83;;;242.00;;
20067;SDS011;10194;50.824;7.134;2022-11-15T06:40:03;263.30;;;236.13;;
20067;SDS011;10194;50.824;7.134;2022-11-15T06:42:30;256.37;;;229.03;;
20067;SDS011;10194;50.824;7.134;2022-11-15T06:44:56;258.57;;;231.17;;
20067;SDS011;10194;50.824;7.134;2022-11-15T06:47:22;260.80;;;233.40;;
20067;SDS011;10194;50.824;7.134;2022-11-15T06:49:47;253.83;;;226.57;;
20067;SDS011;10194;50.824;7.134;2022-11-15T06:52:13;251.37;;;222.40;;
20067;SDS011;10194;50.824;7.134;2022-11-15T06:54:39;241.70;;;214.33;;
20067;SDS011;10194;50.824;7.134;2022-11-15T06:57:04;242.90;;;206.67;;
20067;SDS011;10194;50.824;7.134;2022-11-15T06:59:30;238.73;;;196.57;;
20067;SDS011;10194;50.824;7.134;2022-11-15T07:01:56;236.50;;;190.77;;
20067;SDS011;10194;50.824;7.134;2022-11-15T07:04:22;238.83;;;183.60;;
20067;SDS011;10194;50.824;7.134;2022-11-15T07:06:47;234.53;;;178.00;;
20067;SDS011;10194;50.824;7.134;2022-11-15T07:09:13;229.07;;;171.67;;
20067;SDS011;10194;50.824;7.134;2022-11-15T07:11:40;234.17;;;174.33;;
20067;SDS011;10194;50.824;7.134;2022-11-15T07:14:05;231.97;;;175.83;;
20067;SDS011;10194;50.824;7.134;2022-11-15T07:16:31;232.57;;;177.37;;
20067;SDS011;10194;50.824;7.134;2022-11-15T07:18:57;233.53;;;181.40;;
20067;SDS011;10194;50.824;7.134;2022-11-15T07:21:23;229.83;;;177.93;;
20067;SDS011;10194;50.824;7.134;2022-11-15T07:23:49;237.03;;;188.60;;
20067;SDS011;10194;50.824;7.134;2022-11-15T07:26:14;239.47;;;190.93;;
20067;SDS011;10194;50.824;7.134;2022-11-15T07:28:40;239.37;;;187.57;;
20067;SDS011;10194;50.824;7.134;2022-11-15T07:31:07;235.50;;;190.27;;
20067;SDS011;10194;50.824;7.134;2022-11-15T07:33:33;235.90;;;198.80;;
20067;SDS011;10194;50.824;7.134;2022-11-15T07:36:01;237.23;;;198.90;;
20067;SDS011;10194;50.824;7.134;2022-11-15T07:38:29;234.83;;;186.53;;
20067;SDS011;10194;50.824;7.134;2022-11-15T07:40:56;236.73;;;189.83;;
20067;SDS011;10194;50.824;7.134;2022-11-15T07:43:27;237.23;;;192.83;;
20067;SDS011;10194;50.824;7.134;2022-11-15T07:45:54;236.53;;;192.83;;
20067;SDS011;10194;50.824;7.134;2022-11-15T07:48:22;237.90;;;203.30;;
20067;SDS011;10194;50.824;7.134;2022-11-15T07:50:48;240.07;;;201.30;;
20067;SDS011;10194;50.824;7.134;2022-11-15T07:53:14;241.37;;;209.00;;
20067;SDS011;10194;50.824;7.134;2022-11-15T07:55:40;244.40;;;210.10;;
20067;SDS011;10194;50.824;7.134;2022-11-15T07:58:08;244.50;;;207.67;;
20067;SDS011;10194;50.824;7.134;2022-11-15T08:00:43;248.57;;;219.50;;
20067;SDS011;10194;50.824;7.134;2022-11-15T08:03:10;249.87;;;222.70;;
20067;SDS011;10194;50.824;7.134;2022-11-15T08:05:40;263.00;;;235.40;;
20067;SDS011;10194;50.824;7.134;2022-11-15T08:08:07;265.37;;;237.37;;
20067;SDS011;10194;50.824;7.134;2022-11-15T08:10:36;259.67;;;232.07;;
20067;SDS011;10194;50.824;7.134;2022-11-15T08:13:04;267.37;;;239.37;;
20067;SDS011;10194;50.824;7.134;2022-11-15T08:15:35;281.80;;;253.30;;
20067;SDS011;10194;50.824;7.134;2022-11-15T08:18:11;280.30;;;251.40;;
20067;SDS011;10194;50.824;7.134;2022-11-15T08:20:40;289.40;;;260.43;;
20067;SDS011;10194;50.824;7.134;2022-11-15T08:23:07;294.70;;;265.83;;
20067;SDS011;10194;50.824;7.134;2022-11-15T08:25:35;293.73;;;264.43;;
20067;SDS011;10194;50.824;7.134;2022-11-15T08:28:05;282.70;;;253.73;;
20067;SDS011;10194;50.824;7.134;2022-11-15T08:30:39;288.60;;;259.83;;
20067;SDS011;10194;50.824;7.134;2022-11-15T08:33:09;287.97;;;259.03;;
20067;SDS011;10194;50.824;7.134;2022-11-15T08:35:37;295.60;;;266.83;;
20067;SDS011;10194;50.824;7.134;2022-11-15T08:38:02;294.47;;;265.30;;
20067;SDS011;10194;50.824;7.134;2022-11-15T08:40:28;295.33;;;266.67;;
20067;SDS011;10194;50.824;7.134;2022-11-15T08:42:54;300.17;;;270.77;;
20067;SDS011;10194;50.824;7.134;2022-11-15T08:45:19;294.07;;;265.37;;
20067;SDS011;10194;50.824;7.134;2022-11-15T08:47:45;295.03;;;265.73;;
20067;SDS011;10194;50.824;7.134;2022-11-15T08:50:11;300.10;;;270.50;;
20067;SDS011;10194;50.824;7.134;2022-11-15T08:52:37;298.63;;;269.30;;
20067;SDS011;10194;50.824;7.134;2022-11-15T08:55:02;293.77;;;265.17;;
20067;SDS011;10194;50.824;7.134;2022-11-15T08:57:29;297.70;;;268.87;;
20067;SDS011;10194;50.824;7.134;2022-11-15T08:59:55;292.13;;;262.73;;
20067;SDS011;10194;50.824;7.134;2022-11-15T09:02:22;301.37;;;272.43;;
20067;SDS011;10194;50.824;7.134;2022-11-15T09:04:47;295.70;;;267.30;;
20067;SDS011;10194;50.824;7.134;2022-11-15T09:07:13;297.57;;;268.57;;
20067;SDS011;10194;50.824;7.134;2022-11-15T09:09:39;291.10;;;263.10;;
20067;SDS011;10194;50.824;7.134;2022-11-15T09:12:05;293.67;;;265.53;;
20067;SDS011;10194;50.824;7.134;2022-11-15T09:14:32;299.87;;;270.63;;
20067;SDS011;10194;50.824;7.134;2022-11-15T09:16:59;293.20;;;265.03;;
20067;SDS011;10194;50.824;7.134;2022-11-15T09:19:25;295.60;;;266.93;;
20067;SDS011;10194;50.824;7.134;2022-11-15T09:21:51;299.60;;;271.00;;
20067;SDS011;10194;50.824;7.134;2022-11-15T09:24:16;297.00;;;267.80;;
20067;SDS011;10194;50.824;7.134;2022-11-15T09:26:42;304.00;;;274.63;;
20067;SDS011;10194;50.824;7.134;2022-11-15T09:29:08;295.10;;;266.37;;
20067;SDS011;10194;50.824;7.134;2022-11-15T09:31:34;292.80;;;264.50;;
20067;SDS011;10194;50.824;7.134;2022-11-15T09:34:00;289.10;;;260.80;;
20067;SDS011;10194;50.824;7.134;2022-11-15T09:36:26;287.83;;;259.70;;
20067;SDS011;10194;50.824;7.134;2022-11-15T09:38:52;289.40;;;261.20;;
20067;SDS011;10194;50.824;7.134;2022-11-15T09:41:44;291.67;;;263.03;;
20067;SDS011;10194;50.824;7.134;2022-11-15T09:49:58;292.90;;;264.33;;
20067;SDS011;10194;50.824;7.134;2022-11-15T09:52:26;286.00;;;257.60;;
20067;SDS011;10194;50.824;7.134;2022-11-15T09:54:53;289.80;;;261.47;;
20067;SDS011;10194;50.824;7.134;2022-11-15T10:00:20;280.80;;;252.83;;
20067;SDS011;10194;50.824;7.134;2022-11-15T10:05:45;280.20;;;252.40;;
20067;SDS011;10194;50.824;7.134;2022-11-15T10:08:24;273.47;;;246.07;;
20067;SDS011;10194;50.824;7.134;2022-11-15T10:11:17;284.27;;;256.50;;
20067;SDS011;10194;50.824;7.134;2022-11-15T10:13:56;285.33;;;256.83;;
20067;SDS011;10194;50.824;7.134;2022-11-15T10:25:16;273.30;;;246.07;;
20067;SDS011;10194;50.824;7.134;2022-11-15T10:28:13;274.00;;;246.50;;
20067;SDS011;10194;50.824;7.134;2022-11-15T10:30:40;273.37;;;245.90;;
20067;SDS011;10194;50.824;7.134;2022-11-15T10:33:13;275.73;;;248.27;;
20067;SDS011;10194;50.824;7.134;2022-11-15T10:41:17;257.10;;;230.63;;
20067;SDS011;10194;50.824;7.134;2022-11-15T10:46:36;254.77;;;228.73;;
20067;SDS011;10194;50.824;7.134;2022-11-15T10:51:46;272.00;;;244.43;;
20067;SDS011;10194;50.824;7.134;2022-11-15T10:54:52;261.77;;;234.83;;
20067;SDS011;10194;50.824;7.134;2022-11-15T10:57:26;257.27;;;230.80;;
20067;SDS011;10194;50.824;7.134;2022-11-15T11:00:26;252.93;;;226.97;;
20067;SDS011;10194;50.824;7.134;2022-11-15T11:03:03;238.47;;;212.57;;
20067;SDS011;10194;50.824;7.134;2022-11-15T11:05:44;254.20;;;227.43;;
20067;SDS011;10194;50.824;7.134;2022-11-15T11:10:35;250.80;;;224.77;;
20067;SDS011;10194;50.824;7.134;2022-11-15T11:13:21;259.63;;;233.20;;
20067;SDS011;10194;50.824;7.134;2022-11-15T11:15:55;255.87;;;229.50;;
20067;SDS011;10194;50.824;7.134;2022-11-15T11:21:18;255.53;;;229.27;;
20067;SDS011;10194;50.824;7.134;2022-11-15T11:24:03;252.47;;;226.50;;
20067;SDS011;10194;50.824;7.134;2022-11-15T11:29:19;245.33;;;219.73;;
20067;SDS011;10194;50.824;7.134;2022-11-15T11:35:01;247.63;;;221.53;;
20067;SDS011;10194;50.824;7.134;2022-11-15T11:37:55;238.10;;;212.90;;
20067;SDS011;10194;50.824;7.134;2022-11-15T11:43:53;239.13;;;213.93;;
20067;SDS011;10194;50.824;7.134;2022-11-15T11:47:01;228.17;;;203.20;;
20067;SDS011;10194;50.824;7.134;2022-11-15T11:52:28;219.77;;;192.33;;
20067;SDS011;10194;50.824;7.134;2022-11-15T11:55:16;221.13;;;192.63;;
20067;SDS011;10194;50.824;7.134;2022-11-15T12:03:55;221.03;;;191.63;;
20067;SDS011;10194;50.824;7.134;2022-11-15T12:06:32;223.13;;;198.60;;
20067;SDS011;10194;50.824;7.134;2022-11-15T12:14:44;216.43;;;186.33;;
20067;SDS011;10194;50.824;7.134;2022-11-15T12:17:16;214.37;;;179.83;;
20067;SDS011;10194;50.824;7.134;2022-11-15T12:19:46;209.67;;;173.47;;
20067;SDS011;10194;50.824;7.134;2022-11-15T12:22:23;216.80;;;177.77;;
20067;SDS011;10194;50.824;7.134;2022-11-15T12:27:57;226.27;;;200.40;;
20067;SDS011;10194;50.824;7.134;2022-11-15T12:33:38;207.93;;;170.77;;
20067;SDS011;10194;50.824;7.134;2022-11-15T12:41:31;200.03;;;156.43;;
20067;SDS011;10194;50.824;7.134;2022-11-15T12:43:59;203.33;;;161.97;;
20067;SDS011;10194;50.824;7.134;2022-11-15T12:48:56;209.87;;;173.80;;
20067;SDS011;10194;50.824;7.134;2022-11-15T13:02:27;208.30;;;166.23;;
20067;SDS011;10194;50.824;7.134;2022-11-15T13:15:58;224.87;;;196.13;;
20067;SDS011;10194;50.824;7.134;2022-11-15T13:18:37;222.30;;;193.77;;
20067;SDS011;10194;50.824;7.134;2022-11-15T13:21:17;215.10;;;181.67;;
20067;SDS011;10194;50.824;7.134;2022-11-15T13:24:10;221.20;;;187.83;;
20067;SDS011;10194;50.824;7.134;2022-11-15T13:26:39;216.67;;;182.07;;
20067;SDS011;10194;50.824;7.134;2022-11-15T13:29:12;208.93;;;170.90;;
20067;SDS011;10194;50.824;7.134;2022-11-15T13:31:42;209.93;;;172.20;;
20067;SDS011;10194;50.824;7.134;2022-11-15T13:34:22;215.03;;;177.43;;
20067;SDS011;10194;50.824;7.134;2022-11-15T13:36:58;220.00;;;188.37;;
20067;SDS011;10194;50.824;7.134;2022-11-15T13:39:28;210.87;;;169.93;;
20067;SDS011;10194;50.824;7.134;2022-11-15T13:41:56;204.47;;;162.50;;
20067;SDS011;10194;50.824;7.134;2022-11-15T13:44:32;210.87;;;172.23;;
20067;SDS011;10194;50.824;7.134;2022-11-15T13:47:31;203.53;;;161.87;;
20067;SDS011;10194;50.824;7.134;2022-11-15T13:49:52;211.17;;;164.33;;
20067;SDS011;10194;50.824;7.134;2022-11-15T13:52:18;208.27;;;169.00;;
20067;SDS011;10194;50.824;7.134;2022-11-15T13:57:25;209.70;;;173.10;;
20067;SDS011;10194;50.824;7.134;2022-11-15T14:03:18;217.33;;;185.87;;
20067;SDS011;10194;50.824;7.134;2022-11-15T14:06:10;211.97;;;176.00;;
20067;SDS011;10194;50.824;7.134;2022-11-15T14:08:57;230.17;;;204.83;;
20067;SDS011;10194;50.824;7.134;2022-11-15T14:11:23;226.97;;;201.93;;
20067;SDS011;10194;50.824;7.134;2022-11-15T14:19:45;216.17;;;182.70;;
20067;SDS011;10194;50.824;7.134;2022-11-15T14:22:27;230.07;;;202.20;;
20067;SDS011;10194;50.824;7.134;2022-11-15T14:30:48;223.03;;;193.83;;
20067;SDS011;10194;50.824;7.134;2022-11-15T14:33:27;212.20;;;174.97;;
20067;SDS011;10194;50.824;7.134;2022-11-15T14:36:11;258.57;;;194.50;;
20067;SDS011;10194;50.824;7.134;2022-11-15T14:38:42;233.27;;;205.63;;
20067;SDS011;10194;50.824;7.134;2022-11-15T14:41:17;225.03;;;199.10;;
20067;SDS011;10194;50.824;7.134;2022-11-15T14:43:57;225.10;;;196.87;;
20067;SDS011;10194;50.824;7.134;2022-11-15T14:46:23;230.67;;;204.40;;
20067;SDS011;10194;50.824;7.134;2022-11-15T14:48:48;225.03;;;199.67;;
20067;SDS011;10194;50.824;7.134;2022-11-15T14:51:18;225.57;;;195.73;;
20067;SDS011;10194;50.824;7.134;2022-11-15T14:53:44;234.30;;;202.47;;
20067;SDS011;10194;50.824;7.134;2022-11-15T14:56:11;229.43;;;204.33;;
20067;SDS011;10194;50.824;7.134;2022-11-15T14:58:38;224.20;;;192.80;;
20067;SDS011;10194;50.824;7.134;2022-11-15T15:01:20;229.20;;;204.13;;
20067;SDS011;10194;50.824;7.134;2022-11-15T15:03:52;236.73;;;211.33;;
20067;SDS011;10194;50.824;7.134;2022-11-15T15:06:21;227.07;;;201.60;;
20067;SDS011;10194;50.824;7.134;2022-11-15T15:08:48;229.93;;;203.93;;
20067;SDS011;10194;50.824;7.134;2022-11-15T15:11:25;242.30;;;216.43;;
20067;SDS011;10194;50.824;7.134;2022-11-15T15:13:53;235.13;;;209.73;;
20067;SDS011;10194;50.824;7.134;2022-11-15T15:16:22;226.60;;;199.53;;
20067;SDS011;10194;50.824;7.134;2022-11-15T15:18:49;242.50;;;216.03;;
20067;SDS011;10194;50.824;7.134;2022-11-15T15:21:22;244.77;;;218.17;;
20067;SDS011;10194;50.824;7.134;2022-11-15T15:23:50;245.67;;;219.13;;
20067;SDS011;10194;50.824;7.134;2022-11-15T15:26:19;249.13;;;223.03;;
20067;SDS011;10194;50.824;7.134;2022-11-15T15:28:45;248.37;;;222.23;;
20067;SDS011;10194;50.824;7.134;2022-11-15T15:31:12;247.03;;;221.13;;
20067;SDS011;10194;50.824;7.134;2022-11-15T15:33:38;242.23;;;216.60;;
20067;SDS011;10194;50.824;7.134;2022-11-15T15:36:04;263.87;;;236.83;;
20067;SDS011;10194;50.824;7.134;2022-11-15T15:38:30;240.67;;;215.03;;
20067;SDS011;10194;50.824;7.134;2022-11-15T15:40:56;229.17;;;203.03;;
20067;SDS011;10194;50.824;7.134;2022-11-15T15:43:21;240.03;;;214.27;;
20067;SDS011;10194;50.824;7.134;2022-11-15T15:45:47;233.30;;;207.83;;
20067;SDS011;10194;50.824;7.134;2022-11-15T15:48:17;223.50;;;195.60;;
20067;SDS011;10194;50.824;7.134;2022-11-15T15:50:42;232.83;;;207.07;;
20067;SDS011;10194;50.824;7.134;2022-11-15T15:53:09;241.30;;;215.33;;
20067;SDS011;10194;50.824;7.134;2022-11-15T15:55:36;229.30;;;204.13;;
20067;SDS011;10194;50.824;7.134;2022-11-15T15:58:03;234.03;;;208.73;;
20067;SDS011;10194;50.824;7.134;2022-11-15T16:00:30;232.30;;;206.83;;
20067;SDS011;10194;50.824;7.134;2022-11-15T16:02:58;247.80;;;220.83;;
20067;SDS011;10194;50.824;7.134;2022-11-15T16:05:24;257.90;;;231.30;;
20067;SDS011;10194;50.824;7.134;2022-11-15T16:07:50;258.73;;;232.17;;
20067;SDS011;10194;50.824;7.134;2022-11-15T16:12:53;271.13;;;243.87;;
20067;SDS011;10194;50.824;7.134;2022-11-15T16:15:20;260.77;;;233.33;;
20067;SDS011;10194;50.824;7.134;2022-11-15T16:17:52;267.03;;;239.33;;
20067;SDS011;10194;50.824;7.134;2022-11-15T16:20:29;256.27;;;229.60;;
20067;SDS011;10194;50.824;7.134;2022-11-15T16:22:58;274.03;;;245.90;;
20067;SDS011;10194;50.824;7.134;2022-11-15T16:25:24;263.37;;;236.47;;
20067;SDS011;10194;50.824;7.134;2022-11-15T16:27:50;261.03;;;234.23;;
20067;SDS011;10194;50.824;7.134;2022-11-15T16:30:18;245.83;;;219.87;;
20067;SDS011;10194;50.824;7.134;2022-11-15T16:32:46;264.03;;;236.97;;
20067;SDS011;10194;50.824;7.134;2022-11-15T16:35:13;265.33;;;238.33;;
20067;SDS011;10194;50.824;7.134;2022-11-15T16:37:40;263.23;;;236.30;;
20067;SDS011;10194;50.824;7.134;2022-11-15T16:40:22;259.43;;;232.73;;
20067;SDS011;10194;50.824;7.134;2022-11-15T16:42:58;271.63;;;244.00;;